Hauptseite
METAR-TAF:

METAR-TAF

Flughäfen :

Flughafen Franjo Tuđman Zagreb

Zagreb, Kroatien

Breite: 45-44N, Länge: 016-04E, Höhe: 106 m

Beobachtung

Neuester Wetterbericht von vor 31 Minuten, um 20:30 UTC
Wind 2 kt aus unterschiedlichen Richtungen
Temperatur 11°C
Luftfeuchtigkeit 58%
Luftdruck 1026 hPa
Sichtweite 10 km oder mehr
keine Wolken unter 1500 m und keine Kumulonimbus oder Gewitterwolken

METAR: LDZA 202030Z VRB02KT CAVOK 11/03 Q1026 NOSIG

Zeit: 23:01 (21:01 UTC)

Prognose

Neuester Wetterbericht von vor 3 Stunden und 36 Minuten, um 17:25 UTC
Gültige Prognose vom 20 um 18 UTC bis 21 um 18 UTC
Wind 2 kt aus unterschiedlichen Richtungen
Sichtweite 10 km oder mehr
keine Wolken unter 1500 m und keine Kumulonimbus oder Gewitterwolken

TAF: LDZA 201725Z 2018/2118 VRB02KT CAVOK TX22/2114Z TN04/2105Z

Wetterbeobachtungen und Prognosen von mehr als 4000 Flughäfen (METAR und TAF Bericht).

Die verfügbaren Stationen werden durch gelbe und rote Markierungen auf der Karte dargestellt.

Führen Sie die Maus auf sie, um den Namen der Station zu sehen.

Darauf klicken, um die Beobachtung von Wetterbeobachtungen und Prognosen zu sehen.

Um die Karte zu ändern : klicken Sie auf den grünen Tasten mit einem schwarzen Kreuz Zum Vergrößern, auf den grünen Button mit einem Gedankenstrich zu verkleinern, oder auf die grünen Pfeile für benachbarte Karten.


METAR-TAF: